Time;durP1;ratioP1;P1;durP2;ratioP2;P2;SDS_P1;SDS_P2;PMS_P1;PMS_P2;Temp;Humidity;BMP_temperature;BMP_pressure;BME280_temperature;BME280_humidity;BME280_pressure;Samples;Min_cycle;Max_cycle;Signal;HPM_P1;HPM_P2
2021/08/11 00:02:21;;;;;;;6.78;4.32;;;;;;;;;;5005476;28;20512;-72
2021/08/11 00:04:46;;;;;;;5.97;4.35;;;;;;;;;;5013322;28;20048;-72
2021/08/11 00:07:12;;;;;;;7.10;4.15;;;;;;;;;;5010083;28;20033;-72
2021/08/11 00:09:37;;;;;;;9.05;4.60;;;;;;;;;;5008482;28;20034;-72
2021/08/11 00:12:04;;;;;;;8.98;4.90;;;;;;;;;;5013038;28;20065;-73
2021/08/11 00:14:29;;;;;;;9.50;5.10;;;;;;;;;;5012288;28;20026;-72
2021/08/11 00:16:55;;;;;;;7.25;4.85;;;;;;;;;;5012557;28;20079;-73
2021/08/11 00:19:20;;;;;;;10.32;5.65;;;;;;;;;;5012464;28;20048;-73
2021/08/11 00:21:46;;;;;;;9.82;5.85;;;;;;;;;;5013409;28;20029;-73
2021/08/11 00:24:11;;;;;;;9.82;6.32;;;;;;;;;;5012839;28;20022;-72
2021/08/11 00:26:37;;;;;;;10.00;6.28;;;;;;;;;;5012567;28;20018;-73
2021/08/11 00:29:03;;;;;;;10.93;6.47;;;;;;;;;;5009999;28;20034;-72
2021/08/11 00:31:29;;;;;;;10.40;6.03;;;;;;;;;;5012691;28;20029;-72
2021/08/11 00:33:55;;;;;;;10.70;6.78;;;;;;;;;;5012793;28;20034;-72
2021/08/11 00:36:20;;;;;;;13.02;6.63;;;;;;;;;;5012259;28;20462;-72
2021/08/11 00:38:46;;;;;;;10.55;6.60;;;;;;;;;;5012473;28;20053;-72
2021/08/11 00:41:11;;;;;;;15.23;6.50;;;;;;;;;;5012347;28;20379;-72
2021/08/11 00:43:37;;;;;;;10.80;6.63;;;;;;;;;;5012265;28;20485;-73
2021/08/11 00:46:06;;;;;;;10.32;5.82;;;;;;;;;;5012319;28;20030;-72
2021/08/11 00:48:32;;;;;;;8.68;5.40;;;;;;;;;;5012299;28;20466;-72
2021/08/11 00:50:57;;;;;;;10.52;5.43;;;;;;;;;;5012300;28;20025;-73
2021/08/11 00:53:27;;;;;;;12.23;5.95;;;;;;;;;;5012614;28;20496;-73
2021/08/11 00:55:55;;;;;;;11.55;5.72;;;;;;;;;;5012473;28;20040;-73
2021/08/11 00:58:20;;;;;;;8.63;5.15;;;;;;;;;;5011853;28;20308;-73
2021/08/11 01:00:48;;;;;;;9.15;6.00;;;;;;;;;;5011831;28;20034;-72
2021/08/11 01:03:19;;;;;;;9.68;5.85;;;;;;;;;;5011693;28;20034;-72
2021/08/11 01:05:46;;;;;;;12.43;6.47;;;;;;;;;;5010745;28;20030;-72
2021/08/11 01:08:12;;;;;;;11.90;6.45;;;;;;;;;;5009626;28;20539;-72
2021/08/11 01:10:39;;;;;;;10.00;6.55;;;;;;;;;;5012381;28;20022;-72
2021/08/11 01:13:06;;;;;;;9.65;5.90;;;;;;;;;;5011974;28;20030;-72
2021/08/11 01:15:31;;;;;;;13.88;6.10;;;;;;;;;;5012150;28;20405;-72
2021/08/11 01:17:57;;;;;;;9.27;5.30;;;;;;;;;;4993795;28;20243;-72
2021/08/11 01:20:23;;;;;;;10.55;5.20;;;;;;;;;;5011701;28;20041;-72
2021/08/11 01:22:53;;;;;;;10.02;5.40;;;;;;;;;;5012143;28;20030;-72
2021/08/11 01:25:27;;;;;;;9.38;5.60;;;;;;;;;;5010747;28;20496;-72
2021/08/11 01:28:01;;;;;;;12.13;5.47;;;;;;;;;;4991641;28;20080;-72
2021/08/11 01:30:42;;;;;;;8.57;5.82;;;;;;;;;;4994385;28;20036;-72
2021/08/11 01:33:38;;;;;;;10.15;6.07;;;;;;;;;;5010969;28;20029;-72
2021/08/11 01:36:22;;;;;;;8.32;5.45;;;;;;;;;;5010283;28;20030;-72
2021/08/11 01:38:55;;;;;;;10.75;5.50;;;;;;;;;;5011333;28;20025;-72
2021/08/11 01:41:28;;;;;;;8.82;5.93;;;;;;;;;;5011478;28;20052;-72
2021/08/11 01:43:56;;;;;;;9.50;6.15;;;;;;;;;;5011686;28;20112;-73
2021/08/11 01:46:23;;;;;;;9.80;5.80;;;;;;;;;;5010757;28;20026;-73
2021/08/11 01:48:49;;;;;;;8.32;5.45;;;;;;;;;;5011559;28;20048;-72
2021/08/11 01:51:16;;;;;;;11.10;5.72;;;;;;;;;;5009922;28;20389;-72
2021/08/11 01:53:42;;;;;;;8.88;5.22;;;;;;;;;;5013503;28;20091;-72
2021/08/11 01:56:08;;;;;;;11.90;5.57;;;;;;;;;;5010885;28;20015;-72
2021/08/11 01:58:34;;;;;;;8.27;5.10;;;;;;;;;;5011099;28;20049;-71
2021/08/11 02:01:05;;;;;;;10.45;5.13;;;;;;;;;;5010065;28;20095;-71
2021/08/11 02:03:31;;;;;;;7.22;4.85;;;;;;;;;;5011151;28;20030;-71
2021/08/11 02:05:57;;;;;;;9.23;5.05;;;;;;;;;;5010022;28;20057;-71
2021/08/11 02:08:23;;;;;;;9.68;5.38;;;;;;;;;;5011494;28;20090;-72
2021/08/11 02:10:50;;;;;;;8.10;4.75;;;;;;;;;;5011545;28;20033;-72
2021/08/11 02:13:17;;;;;;;7.10;4.85;;;;;;;;;;5010972;28;20058;-72
2021/08/11 02:15:49;;;;;;;7.35;5.55;;;;;;;;;;5010645;28;20026;-72
2021/08/11 02:18:15;;;;;;;8.10;5.65;;;;;;;;;;5015814;28;20541;-72
2021/08/11 02:20:41;;;;;;;10.52;5.97;;;;;;;;;;5004343;28;20113;-72
2021/08/11 02:23:06;;;;;;;11.75;6.35;;;;;;;;;;5009420;28;20025;-72
2021/08/11 02:25:33;;;;;;;10.35;5.93;;;;;;;;;;5007101;28;20026;-72
2021/08/11 02:28:06;;;;;;;7.35;5.95;;;;;;;;;;5010215;28;20390;-72
2021/08/11 02:30:43;;;;;;;9.40;5.65;;;;;;;;;;5011014;28;20370;-72
2021/08/11 02:33:46;;;;;;;8.30;5.15;;;;;;;;;;5000427;28;20038;-72
2021/08/11 02:36:19;;;;;;;9.13;5.45;;;;;;;;;;4972991;28;20065;-72
2021/08/11 02:38:47;;;;;;;9.70;5.70;;;;;;;;;;5010781;28;20136;-72
2021/08/11 02:41:38;;;;;;;7.43;5.82;;;;;;;;;;5010414;28;20036;-72
2021/08/11 02:44:08;;;;;;;8.93;6.22;;;;;;;;;;4984898;28;20057;-72
2021/08/11 02:46:39;;;;;;;7.45;5.35;;;;;;;;;;5009780;28;20462;-72
2021/08/11 02:49:08;;;;;;;10.43;5.45;;;;;;;;;;5010590;28;20056;-72
2021/08/11 02:51:35;;;;;;;12.13;4.82;;;;;;;;;;5009836;28;20040;-72
2021/08/11 02:54:11;;;;;;;9.70;5.20;;;;;;;;;;5010138;28;20057;-72
2021/08/11 02:56:47;;;;;;;6.43;5.72;;;;;;;;;;5009538;28;20064;-70
2021/08/11 02:59:15;;;;;;;9.13;6.47;;;;;;;;;;5010232;28;20049;-70
2021/08/11 03:01:44;;;;;;;8.85;6.20;;;;;;;;;;5019378;28;20056;-70
2021/08/11 03:04:11;;;;;;;10.63;6.40;;;;;;;;;;5010247;28;20108;-70
2021/08/11 03:06:37;;;;;;;14.48;6.72;;;;;;;;;;5009955;28;20080;-70
2021/08/11 03:09:03;;;;;;;10.00;7.03;;;;;;;;;;5010191;28;20489;-70
2021/08/11 03:11:29;;;;;;;9.80;5.90;;;;;;;;;;5009488;28;20041;-70
2021/08/11 03:13:55;;;;;;;8.55;5.55;;;;;;;;;;4995473;28;20495;-71
2021/08/11 03:16:21;;;;;;;13.13;6.10;;;;;;;;;;5010009;28;20022;-70
2021/08/11 03:18:50;;;;;;;10.20;6.20;;;;;;;;;;5010848;28;20041;-70
2021/08/11 03:21:16;;;;;;;8.38;5.07;;;;;;;;;;5009354;28;20037;-70
2021/08/11 03:23:41;;;;;;;9.70;4.88;;;;;;;;;;5010076;28;20029;-70
2021/08/11 03:26:07;;;;;;;8.57;5.20;;;;;;;;;;5008919;28;20060;-70
2021/08/11 03:28:33;;;;;;;10.20;5.80;;;;;;;;;;5009801;28;20026;-70
2021/08/11 03:30:58;;;;;;;9.15;5.97;;;;;;;;;;4999933;28;20034;-70
2021/08/11 03:33:24;;;;;;;8.02;5.35;;;;;;;;;;5004963;28;20026;-69
2021/08/11 03:35:49;;;;;;;6.15;4.53;;;;;;;;;;5008648;28;20037;-71
2021/08/11 03:38:15;;;;;;;9.00;3.88;;;;;;;;;;5009505;28;20017;-71
2021/08/11 03:40:40;;;;;;;5.47;4.00;;;;;;;;;;5011980;28;20060;-71
2021/08/11 03:43:06;;;;;;;8.23;4.38;;;;;;;;;;5013248;28;20030;-71
2021/08/11 03:45:31;;;;;;;6.80;4.43;;;;;;;;;;5003494;28;20022;-70
2021/08/11 03:47:57;;;;;;;9.40;5.90;;;;;;;;;;5008959;28;20497;-71
2021/08/11 03:50:25;;;;;;;9.25;4.15;;;;;;;;;;5013191;28;20351;-71
2021/08/11 03:52:51;;;;;;;10.15;4.13;;;;;;;;;;5013174;28;20046;-70
2021/08/11 03:55:17;;;;;;;9.85;5.43;;;;;;;;;;5013432;28;20030;-70
2021/08/11 03:57:42;;;;;;;8.00;4.88;;;;;;;;;;4995485;28;20026;-70
2021/08/11 04:00:09;;;;;;;8.20;5.15;;;;;;;;;;5013796;28;20105;-70
2021/08/11 04:02:34;;;;;;;6.97;5.28;;;;;;;;;;5013250;28;20121;-70
2021/08/11 04:05:04;;;;;;;9.38;5.47;;;;;;;;;;5013739;28;20470;-70
2021/08/11 04:07:29;;;;;;;8.50;5.22;;;;;;;;;;5012384;28;20025;-70
2021/08/11 04:09:55;;;;;;;8.77;5.35;;;;;;;;;;5013906;28;20029;-71
2021/08/11 04:12:20;;;;;;;7.97;5.00;;;;;;;;;;5012969;28;20025;-71
2021/08/11 04:14:46;;;;;;;9.70;4.88;;;;;;;;;;5013401;28;20105;-71
2021/08/11 04:17:12;;;;;;;11.25;5.63;;;;;;;;;;5005956;28;20030;-71
2021/08/11 04:19:37;;;;;;;6.10;4.75;;;;;;;;;;5013779;28;20053;-71
2021/08/11 04:22:03;;;;;;;6.80;5.07;;;;;;;;;;5012845;28;20064;-71
2021/08/11 04:24:29;;;;;;;11.20;5.85;;;;;;;;;;5012945;28;20053;-71
2021/08/11 04:26:54;;;;;;;11.23;5.78;;;;;;;;;;5012583;28;20029;-71
2021/08/11 04:29:20;;;;;;;9.85;6.00;;;;;;;;;;5012669;28;20037;-71
2021/08/11 04:31:45;;;;;;;10.13;6.88;;;;;;;;;;5013016;28;20025;-71
2021/08/11 04:34:11;;;;;;;12.32;6.78;;;;;;;;;;5012217;28;20030;-71
2021/08/11 04:36:36;;;;;;;11.40;6.47;;;;;;;;;;5012353;28;20030;-71
2021/08/11 04:39:02;;;;;;;12.50;6.93;;;;;;;;;;5012923;28;20389;-71
2021/08/11 04:41:28;;;;;;;10.50;6.57;;;;;;;;;;5012878;28;20033;-71
2021/08/11 04:43:53;;;;;;;9.93;6.20;;;;;;;;;;5012703;28;20037;-71
2021/08/11 04:46:19;;;;;;;13.13;6.65;;;;;;;;;;5012547;28;20036;-71
2021/08/11 04:48:45;;;;;;;9.35;5.97;;;;;;;;;;5012682;28;20037;-71
2021/08/11 04:51:10;;;;;;;7.03;5.50;;;;;;;;;;5013058;28;20378;-71
2021/08/11 04:53:36;;;;;;;7.38;5.38;;;;;;;;;;5005856;28;20036;-71
2021/08/11 04:56:02;;;;;;;6.57;5.40;;;;;;;;;;5006510;28;20033;-71
2021/08/11 04:58:27;;;;;;;9.07;6.03;;;;;;;;;;5012487;28;20493;-71
2021/08/11 05:00:53;;;;;;;8.15;6.45;;;;;;;;;;5011718;28;20402;-71
2021/08/11 05:03:18;;;;;;;8.50;6.40;;;;;;;;;;4994698;28;20033;-71
2021/08/11 05:05:44;;;;;;;8.77;6.38;;;;;;;;;;5011122;28;20049;-71
2021/08/11 05:08:10;;;;;;;11.13;7.13;;;;;;;;;;5012085;28;20029;-71
2021/08/11 05:10:35;;;;;;;9.25;6.60;;;;;;;;;;5012263;28;20068;-71
2021/08/11 05:13:01;;;;;;;11.20;6.65;;;;;;;;;;5010387;28;20454;-71
2021/08/11 05:15:27;;;;;;;9.00;6.57;;;;;;;;;;5011705;28;20044;-71
2021/08/11 05:17:52;;;;;;;8.02;6.10;;;;;;;;;;5011353;28;20063;-71
2021/08/11 05:20:19;;;;;;;12.63;6.63;;;;;;;;;;5011484;28;20363;-71
2021/08/11 05:22:46;;;;;;;9.63;6.40;;;;;;;;;;5012273;28;20060;-71
2021/08/11 05:25:12;;;;;;;11.13;6.03;;;;;;;;;;5011890;28;20030;-71
2021/08/11 05:27:38;;;;;;;10.95;6.95;;;;;;;;;;5012077;28;20029;-71
2021/08/11 05:30:05;;;;;;;12.35;7.03;;;;;;;;;;5012229;28;20389;-71
2021/08/11 05:32:31;;;;;;;12.35;7.47;;;;;;;;;;5009235;28;20037;-71
2021/08/11 05:34:56;;;;;;;8.23;7.00;;;;;;;;;;5012007;28;20496;-71
2021/08/11 05:37:22;;;;;;;9.50;7.68;;;;;;;;;;5011491;28;20048;-71
2021/08/11 05:39:47;;;;;;;8.95;7.20;;;;;;;;;;4994251;28;20028;-71
2021/08/11 05:42:13;;;;;;;7.95;6.30;;;;;;;;;;5011679;28;20040;-71
2021/08/11 05:44:39;;;;;;;7.18;6.47;;;;;;;;;;5012361;28;20045;-71
2021/08/11 05:47:04;;;;;;;9.35;6.43;;;;;;;;;;5011489;28;20032;-71
2021/08/11 05:49:32;;;;;;;7.80;5.57;;;;;;;;;;5011620;28;20508;-71
2021/08/11 05:51:57;;;;;;;7.28;5.20;;;;;;;;;;5011120;28;20105;-71
2021/08/11 05:54:23;;;;;;;6.65;5.22;;;;;;;;;;5011053;28;20104;-71
2021/08/11 05:56:49;;;;;;;8.07;4.90;;;;;;;;;;5011303;28;20511;-71
2021/08/11 05:59:14;;;;;;;6.45;4.22;;;;;;;;;;5011232;28;20030;-72
2021/08/11 06:01:39;;;;;;;10.27;4.40;;;;;;;;;;4996852;28;20057;-71
2021/08/11 06:04:05;;;;;;;8.65;4.50;;;;;;;;;;5010848;28;20025;-71
2021/08/11 06:06:31;;;;;;;4.30;3.45;;;;;;;;;;5011252;28;20052;-71
2021/08/11 06:08:56;;;;;;;7.63;4.28;;;;;;;;;;5011224;28;20034;-71
2021/08/11 06:11:22;;;;;;;7.80;3.92;;;;;;;;;;5010590;28;20401;-71
2021/08/11 06:13:47;;;;;;;9.23;4.40;;;;;;;;;;5010435;28;20028;-72
2021/08/11 06:16:13;;;;;;;6.18;3.80;;;;;;;;;;5004014;28;20037;-71
2021/08/11 06:18:39;;;;;;;8.18;3.80;;;;;;;;;;5011459;28;20022;-71
2021/08/11 06:21:04;;;;;;;8.50;3.92;;;;;;;;;;5010387;28;20393;-71
2021/08/11 06:23:30;;;;;;;6.90;4.13;;;;;;;;;;5011083;28;20136;-71
2021/08/11 06:25:55;;;;;;;9.68;5.20;;;;;;;;;;5010932;28;20057;-71
2021/08/11 06:28:21;;;;;;;7.97;4.60;;;;;;;;;;4991072;28;20490;-71
2021/08/11 06:30:47;;;;;;;7.63;4.35;;;;;;;;;;5009552;28;20029;-71
2021/08/11 06:33:12;;;;;;;7.88;5.32;;;;;;;;;;5011027;28;20045;-71
2021/08/11 06:35:38;;;;;;;7.85;4.95;;;;;;;;;;5010531;28;20087;-71
2021/08/11 06:38:04;;;;;;;7.85;5.10;;;;;;;;;;5011186;28;20045;-71
2021/08/11 06:40:30;;;;;;;9.45;5.35;;;;;;;;;;5010287;28;20029;-71
2021/08/11 06:42:57;;;;;;;8.43;5.47;;;;;;;;;;5010437;28;20083;-71
2021/08/11 06:45:22;;;;;;;9.13;5.38;;;;;;;;;;5010241;28;20034;-71
2021/08/11 06:47:48;;;;;;;8.60;5.07;;;;;;;;;;5010326;28;20026;-71
2021/08/11 06:50:14;;;;;;;7.10;4.57;;;;;;;;;;5010888;28;20040;-71
2021/08/11 06:52:39;;;;;;;6.05;4.82;;;;;;;;;;5009973;28;20057;-72
2021/08/11 06:55:11;;;;;;;7.90;4.63;;;;;;;;;;5010568;28;20030;-72
2021/08/11 06:57:37;;;;;;;7.18;4.82;;;;;;;;;;5010748;28;20021;-72
2021/08/11 07:00:04;;;;;;;8.93;5.13;;;;;;;;;;5010513;28;20552;-72
2021/08/11 07:02:30;;;;;;;7.20;4.53;;;;;;;;;;5009674;28;20034;-72
2021/08/11 07:04:55;;;;;;;8.02;4.95;;;;;;;;;;5010652;28;20512;-72
2021/08/11 07:07:21;;;;;;;7.22;4.45;;;;;;;;;;5010571;28;20026;-72
2021/08/11 07:09:46;;;;;;;7.47;4.30;;;;;;;;;;5010968;28;20057;-72
2021/08/11 07:12:12;;;;;;;8.13;3.85;;;;;;;;;;5009366;28;20022;-72
2021/08/11 07:14:37;;;;;;;6.38;3.80;;;;;;;;;;5010317;28;20444;-73
2021/08/11 07:17:03;;;;;;;6.20;3.33;;;;;;;;;;5010270;28;20566;-73
2021/08/11 07:19:29;;;;;;;6.68;3.15;;;;;;;;;;5010190;28;20038;-73
2021/08/11 07:21:54;;;;;;;5.18;3.55;;;;;;;;;;5010081;28;20026;-73
2021/08/11 07:24:20;;;;;;;4.97;2.90;;;;;;;;;;5013004;28;20064;-73
2021/08/11 07:26:46;;;;;;;5.70;3.10;;;;;;;;;;5014037;28;20442;-73
2021/08/11 07:29:11;;;;;;;6.97;3.38;;;;;;;;;;5013834;28;20385;-73
2021/08/11 07:31:37;;;;;;;4.75;2.65;;;;;;;;;;5004317;28;20059;-72
2021/08/11 07:34:03;;;;;;;7.00;2.70;;;;;;;;;;5013843;28;20428;-72
2021/08/11 07:36:28;;;;;;;6.82;2.90;;;;;;;;;;4995784;28;20026;-72
2021/08/11 07:38:54;;;;;;;5.78;3.10;;;;;;;;;;5008282;28;20101;-73
2021/08/11 07:41:19;;;;;;;6.97;3.10;;;;;;;;;;5013343;28;20022;-73
2021/08/11 07:43:45;;;;;;;7.60;3.28;;;;;;;;;;5009082;28;20029;-72
2021/08/11 07:46:12;;;;;;;6.45;3.30;;;;;;;;;;5012647;28;20026;-72
2021/08/11 07:48:38;;;;;;;7.38;3.50;;;;;;;;;;5013881;28;20028;-72
2021/08/11 07:51:04;;;;;;;10.73;3.85;;;;;;;;;;5013764;28;20477;-72
2021/08/11 07:53:30;;;;;;;5.53;3.20;;;;;;;;;;5014204;28;20029;-72
2021/08/11 07:55:55;;;;;;;4.82;2.83;;;;;;;;;;5016966;28;20532;-72
2021/08/11 07:58:24;;;;;;;4.72;2.58;;;;;;;;;;5014865;28;20096;-72
2021/08/11 08:00:50;;;;;;;5.75;2.60;;;;;;;;;;5013722;28;20038;-72
2021/08/11 08:03:16;;;;;;;4.85;2.60;;;;;;;;;;5019520;28;20017;-71
2021/08/11 08:05:41;;;;;;;6.82;3.00;;;;;;;;;;5014431;28;20038;-72
2021/08/11 08:08:07;;;;;;;5.15;2.85;;;;;;;;;;5014680;28;20054;-72
2021/08/11 08:10:33;;;;;;;4.63;3.03;;;;;;;;;;4998562;28;20022;-71
2021/08/11 08:12:59;;;;;;;6.68;2.88;;;;;;;;;;5013734;28;20029;-71
2021/08/11 08:15:25;;;;;;;6.75;2.50;;;;;;;;;;5013171;28;20087;-71
2021/08/11 08:17:51;;;;;;;5.07;2.60;;;;;;;;;;5014423;28;20458;-71
2021/08/11 08:20:18;;;;;;;4.70;2.80;;;;;;;;;;5014115;28;20042;-71
2021/08/11 08:22:44;;;;;;;5.95;3.20;;;;;;;;;;5013106;28;20076;-72
2021/08/11 08:25:10;;;;;;;5.03;2.85;;;;;;;;;;5013371;28;20116;-72
2021/08/11 08:27:38;;;;;;;5.53;2.60;;;;;;;;;;5008566;28;20354;-72
2021/08/11 08:30:05;;;;;;;6.38;3.45;;;;;;;;;;5018067;28;20028;-71
2021/08/11 08:32:31;;;;;;;8.05;2.80;;;;;;;;;;5014041;28;20033;-72
2021/08/11 08:34:58;;;;;;;5.43;2.70;;;;;;;;;;5008211;28;20026;-71
2021/08/11 08:37:31;;;;;;;5.85;2.50;;;;;;;;;;5009054;28;20030;-71
2021/08/11 08:39:57;;;;;;;;;;;;;;;;;;5013868;28;20347;-71
2021/08/11 08:42:23;;;;;;;5.95;2.78;;;;;;;;;;5013965;28;19917;-71
2021/08/11 08:44:49;;;;;;;6.53;2.67;;;;;;;;;;5013862;28;20200;-71
2021/08/11 08:47:15;;;;;;;5.22;2.80;;;;;;;;;;5003307;28;20025;-71
2021/08/11 08:49:41;;;;;;;6.88;2.80;;;;;;;;;;5012728;28;20026;-72
2021/08/11 08:52:07;;;;;;;4.78;2.30;;;;;;;;;;5013185;28;20356;-72
2021/08/11 08:54:34;;;;;;;7.10;2.97;;;;;;;;;;5012668;28;20026;-71
2021/08/11 08:57:00;;;;;;;7.05;3.33;;;;;;;;;;5012777;28;20018;-71
2021/08/11 08:59:25;;;;;;;5.40;2.35;;;;;;;;;;5013525;28;20033;-72
2021/08/11 09:01:51;;;;;;;5.10;2.17;;;;;;;;;;5013161;28;20040;-72
2021/08/11 09:04:16;;;;;;;5.05;2.55;;;;;;;;;;5010755;28;20045;-72
2021/08/11 09:06:42;;;;;;;3.88;2.55;;;;;;;;;;5012540;28;20021;-71
2021/08/11 09:09:10;;;;;;;6.53;2.63;;;;;;;;;;5013042;28;20029;-70
2021/08/11 09:11:38;;;;;;;6.13;2.35;;;;;;;;;;5012802;28;20025;-71
2021/08/11 09:14:26;;;;;;;4.75;2.20;;;;;;;;;;5012770;28;20647;-70
2021/08/11 09:16:59;;;;;;;4.78;2.40;;;;;;;;;;5002383;28;20037;-70
2021/08/11 09:19:35;;;;;;;6.97;2.60;;;;;;;;;;5012653;28;20440;-71
2021/08/11 09:22:04;;;;;;;5.85;2.90;;;;;;;;;;5013426;28;20034;-71
2021/08/11 09:24:36;;;;;;;3.53;2.30;;;;;;;;;;5012769;28;20025;-70
2021/08/11 09:27:14;;;;;;;9.20;3.40;;;;;;;;;;5011900;28;20055;-71
2021/08/11 09:30:11;;;;;;;7.38;3.30;;;;;;;;;;5023775;28;20079;-70
2021/08/11 09:32:47;;;;;;;5.30;2.67;;;;;;;;;;5013016;28;20514;-70
2021/08/11 09:35:14;;;;;;;5.43;2.63;;;;;;;;;;5012060;28;20026;-70
2021/08/11 09:37:42;;;;;;;6.55;2.45;;;;;;;;;;5012117;28;20120;-70
2021/08/11 09:40:20;;;;;;;6.72;2.45;;;;;;;;;;5003800;28;20022;-70
2021/08/11 09:42:47;;;;;;;7.50;2.85;;;;;;;;;;5012424;28;20026;-70
2021/08/11 09:45:13;;;;;;;4.80;2.70;;;;;;;;;;5012513;28;20381;-70
2021/08/11 09:47:53;;;;;;;6.13;2.83;;;;;;;;;;5011959;28;20022;-71
2021/08/11 09:50:45;;;;;;;5.78;2.83;;;;;;;;;;5012273;28;20088;-71
2021/08/11 09:53:12;;;;;;;5.63;2.58;;;;;;;;;;5013283;28;20026;-71
2021/08/11 09:56:05;;;;;;;6.93;2.70;;;;;;;;;;5012146;28;20030;-72
2021/08/11 09:58:52;;;;;;;5.80;3.00;;;;;;;;;;5012260;28;20369;-72
2021/08/11 10:01:17;;;;;;;5.80;2.90;;;;;;;;;;5004910;28;20065;-71
2021/08/11 10:04:01;;;;;;;4.50;2.90;;;;;;;;;;4994588;28;20484;-72
2021/08/11 10:06:33;;;;;;;5.15;2.63;;;;;;;;;;5005998;28;20117;-71
2021/08/11 10:09:20;;;;;;;5.55;2.40;;;;;;;;;;5011867;28;20034;-71
2021/08/11 10:11:50;;;;;;;5.22;2.30;;;;;;;;;;5012483;28;20029;-71
2021/08/11 10:14:18;;;;;;;5.10;2.60;;;;;;;;;;5012102;28;20420;-71
2021/08/11 10:16:44;;;;;;;4.03;2.60;;;;;;;;;;5011970;28;20026;-71
2021/08/11 10:19:12;;;;;;;5.28;2.70;;;;;;;;;;5012295;28;20045;-71
2021/08/11 10:21:49;;;;;;;4.57;2.60;;;;;;;;;;5012326;28;20033;-71
2021/08/11 10:24:15;;;;;;;4.97;2.50;;;;;;;;;;5011981;28;21455;-71
2021/08/11 10:26:42;;;;;;;4.65;2.30;;;;;;;;;;5012278;28;20018;-71
2021/08/11 10:29:08;;;;;;;4.40;2.20;;;;;;;;;;5011669;28;20022;-72
2021/08/11 10:31:35;;;;;;;5.18;2.38;;;;;;;;;;5011815;28;20069;-72
2021/08/11 10:34:02;;;;;;;4.88;2.55;;;;;;;;;;5012208;28;20476;-71
2021/08/11 10:36:32;;;;;;;3.58;2.15;;;;;;;;;;5011050;28;20082;-71
2021/08/11 10:38:59;;;;;;;4.47;2.15;;;;;;;;;;5009616;28;20077;-71
2021/08/11 10:41:35;;;;;;;4.35;2.00;;;;;;;;;;5008662;28;20080;-71
2021/08/11 10:44:03;;;;;;;6.93;2.20;;;;;;;;;;5011947;28;20511;-71
2021/08/11 10:46:37;;;;;;;5.70;2.10;;;;;;;;;;5011515;28;20442;-71
2021/08/11 10:49:09;;;;;;;5.72;2.20;;;;;;;;;;5011663;28;20021;-71
2021/08/11 10:51:40;;;;;;;4.83;1.70;;;;;;;;;;5011222;28;20030;-70
2021/08/11 10:54:07;;;;;;;4.25;2.35;;;;;;;;;;5013517;28;20278;-72
2021/08/11 10:56:45;;;;;;;5.95;2.33;;;;;;;;;;5015074;28;20026;-74
2021/08/11 10:59:23;;;;;;;3.65;2.00;;;;;;;;;;5009345;28;20554;-73
2021/08/11 11:01:59;;;;;;;4.50;2.40;;;;;;;;;;5018568;28;20022;-74
2021/08/11 11:04:38;;;;;;;4.47;2.20;;;;;;;;;;5009038;28;20124;-75
2021/08/11 11:07:09;;;;;;;5.22;2.70;;;;;;;;;;5020412;28;20531;-75
2021/08/11 11:09:36;;;;;;;5.35;3.00;;;;;;;;;;5014010;28;20497;-74
2021/08/11 11:12:17;;;;;;;5.43;2.53;;;;;;;;;;5014614;28;20038;-74
2021/08/11 11:14:50;;;;;;;3.88;2.35;;;;;;;;;;5011556;28;20486;-75
2021/08/11 11:17:20;;;;;;;3.92;2.67;;;;;;;;;;5010857;28;20062;-75
2021/08/11 11:22:35;;;;;;;4.35;2.40;;;;;;;;;;5009355;28;20113;-75
2021/08/11 11:25:03;;;;;;;5.68;2.47;;;;;;;;;;5010354;28;20469;-74
2021/08/11 11:27:38;;;;;;;4.85;2.28;;;;;;;;;;5011183;28;20119;-74
2021/08/11 11:30:05;;;;;;;9.10;2.63;;;;;;;;;;5011292;28;20040;-75
2021/08/11 11:32:31;;;;;;;6.97;2.90;;;;;;;;;;5021925;28;20025;-74
2021/08/11 11:35:15;;;;;;;5.10;2.63;;;;;;;;;;5011788;28;20045;-75
2021/08/11 11:37:42;;;;;;;10.10;3.03;;;;;;;;;;5010869;28;20030;-74
2021/08/11 11:40:09;;;;;;;8.48;3.40;;;;;;;;;;5011465;28;20018;-74
2021/08/11 11:42:37;;;;;;;12.65;3.45;;;;;;;;;;5014495;28;20045;-74
2021/08/11 11:45:06;;;;;;;6.20;2.97;;;;;;;;;;5018060;28;20033;-73
2021/08/11 11:47:38;;;;;;;7.57;3.35;;;;;;;;;;5003187;28;21696;-73
2021/08/11 11:50:42;;;;;;;8.13;3.25;;;;;;;;;;5009620;28;20024;-73
2021/08/11 11:53:10;;;;;;;6.60;3.20;;;;;;;;;;5023419;28;20076;-73
2021/08/11 11:55:43;;;;;;;9.07;3.35;;;;;;;;;;5017255;28;20620;-73
2021/08/11 11:58:13;;;;;;;6.68;3.47;;;;;;;;;;5010778;28;20065;-73
2021/08/11 12:00:40;;;;;;;5.68;3.10;;;;;;;;;;5010054;28;20516;-73
2021/08/11 12:03:06;;;;;;;8.90;3.17;;;;;;;;;;5011613;28;20022;-73
2021/08/11 12:05:42;;;;;;;6.65;3.67;;;;;;;;;;5010715;28;20053;-72
2021/08/11 12:08:12;;;;;;;5.47;3.22;;;;;;;;;;5011482;28;20111;-73
2021/08/11 12:10:41;;;;;;;8.50;3.55;;;;;;;;;;5004926;28;20077;-73
2021/08/11 12:13:08;;;;;;;8.35;3.60;;;;;;;;;;5013426;28;20037;-73
2021/08/11 12:15:42;;;;;;;6.13;3.28;;;;;;;;;;5014653;28;20164;-72
2021/08/11 12:18:18;;;;;;;6.10;2.70;;;;;;;;;;5014398;28;20104;-74
2021/08/11 12:20:46;;;;;;;5.22;3.00;;;;;;;;;;5013601;28;20537;-74
2021/08/11 12:23:23;;;;;;;8.00;3.20;;;;;;;;;;5013315;28;20033;-74
2021/08/11 12:26:06;;;;;;;5.57;2.90;;;;;;;;;;5003440;28;20504;-74
2021/08/11 12:28:37;;;;;;;7.00;2.97;;;;;;;;;;5014195;28;20037;-75
2021/08/11 12:31:08;;;;;;;7.88;3.05;;;;;;;;;;5013759;28;20084;-75
2021/08/11 12:33:37;;;;;;;5.70;3.08;;;;;;;;;;5012990;28;20029;-75
2021/08/11 12:36:04;;;;;;;11.25;4.25;;;;;;;;;;5012729;28;20040;-75
2021/08/11 12:38:32;;;;;;;7.22;3.00;;;;;;;;;;5013745;28;20137;-75
2021/08/11 12:41:14;;;;;;;11.07;3.35;;;;;;;;;;5013566;28;20428;-75
2021/08/11 12:43:39;;;;;;;6.40;3.47;;;;;;;;;;5014692;28;20481;-74
2021/08/11 12:46:05;;;;;;;9.10;3.70;;;;;;;;;;5014155;28;20088;-75
2021/08/11 12:48:33;;;;;;;7.13;3.17;;;;;;;;;;5012765;28;20026;-75
2021/08/11 12:51:01;;;;;;;5.90;3.08;;;;;;;;;;5010236;28;20026;-75
2021/08/11 12:53:27;;;;;;;7.35;3.30;;;;;;;;;;5011587;28;20034;-74
2021/08/11 12:56:18;;;;;;;6.35;3.10;;;;;;;;;;5012672;28;20496;-74
2021/08/11 12:59:05;;;;;;;7.10;2.90;;;;;;;;;;5010649;28;20332;-74
2021/08/11 13:01:49;;;;;;;6.07;3.13;;;;;;;;;;5012266;28;20029;-74
2021/08/11 13:04:15;;;;;;;6.20;3.17;;;;;;;;;;5011865;28;20121;-73
2021/08/11 13:06:43;;;;;;;5.97;2.92;;;;;;;;;;5011305;28;20112;-74
2021/08/11 13:09:24;;;;;;;8.68;2.78;;;;;;;;;;5012584;28;20469;-75
2021/08/11 13:11:55;;;;;;;6.20;2.42;;;;;;;;;;5011204;28;20056;-74
2021/08/11 13:14:53;;;;;;;4.40;2.60;;;;;;;;;;5012933;28;20041;-75
2021/08/11 13:17:21;;;;;;;6.10;2.83;;;;;;;;;;5012872;28;20030;-75
2021/08/11 13:20:09;;;;;;;7.75;2.65;;;;;;;;;;5011117;28;20018;-74
2021/08/11 13:22:35;;;;;;;6.32;2.70;;;;;;;;;;4992977;28;20030;-74
2021/08/11 13:25:01;;;;;;;4.82;2.85;;;;;;;;;;4993345;28;20085;-74
2021/08/11 13:27:26;;;;;;;5.55;2.70;;;;;;;;;;4993298;28;20029;-74
2021/08/11 13:29:56;;;;;;;4.97;2.55;;;;;;;;;;5009316;28;20041;-75
2021/08/11 13:32:23;;;;;;;5.35;2.78;;;;;;;;;;5011518;28;20481;-75
2021/08/11 13:34:48;;;;;;;8.65;3.13;;;;;;;;;;5011338;28;20319;-75
2021/08/11 13:37:14;;;;;;;5.22;2.72;;;;;;;;;;5011935;28;20029;-75
2021/08/11 13:39:39;;;;;;;5.53;3.05;;;;;;;;;;5010027;28;20022;-74
2021/08/11 13:42:05;;;;;;;4.68;2.72;;;;;;;;;;5013067;28;20026;-75
2021/08/11 13:44:31;;;;;;;5.05;2.72;;;;;;;;;;5012889;28;20343;-75
2021/08/11 13:46:56;;;;;;;6.60;2.38;;;;;;;;;;5011276;28;20022;-75
2021/08/11 13:49:22;;;;;;;8.63;2.42;;;;;;;;;;5012453;28;20018;-75
2021/08/11 13:51:48;;;;;;;7.85;2.38;;;;;;;;;;5012782;28;20417;-76
2021/08/11 13:54:14;;;;;;;5.35;2.33;;;;;;;;;;5012534;28;20030;-76
2021/08/11 13:56:39;;;;;;;5.65;2.25;;;;;;;;;;5011334;28;20025;-76
2021/08/11 13:59:05;;;;;;;8.15;2.50;;;;;;;;;;5013078;28;20026;-77
2021/08/11 14:01:30;;;;;;;4.32;2.20;;;;;;;;;;5012101;28;20026;-78
2021/08/11 14:03:56;;;;;;;6.32;2.10;;;;;;;;;;5012229;28;20069;-77
2021/08/11 14:06:23;;;;;;;4.65;2.13;;;;;;;;;;5012316;28;20029;-78
2021/08/11 14:08:49;;;;;;;3.47;1.95;;;;;;;;;;5011476;28;20570;-78
2021/08/11 14:11:14;;;;;;;3.63;1.92;;;;;;;;;;5013976;28;20030;-76
2021/08/11 14:13:41;;;;;;;3.78;2.17;;;;;;;;;;5012141;28;20516;-76
2021/08/11 14:16:07;;;;;;;3.22;1.80;;;;;;;;;;5010934;28;20116;-76
2021/08/11 14:18:32;;;;;;;4.03;2.00;;;;;;;;;;5012629;28;20101;-79
2021/08/11 14:21:01;;;;;;;3.63;1.95;;;;;;;;;;5012545;28;20055;-78
2021/08/11 14:23:26;;;;;;;3.00;1.80;;;;;;;;;;5011956;28;20137;-78
2021/08/11 14:25:52;;;;;;;5.35;2.00;;;;;;;;;;5012365;28;20030;-78
2021/08/11 14:28:17;;;;;;;3.03;2.00;;;;;;;;;;5011894;28;20022;-77
2021/08/11 14:30:44;;;;;;;3.40;1.98;;;;;;;;;;5012338;28;20446;-78
2021/08/11 14:33:09;;;;;;;4.78;2.30;;;;;;;;;;5011580;28;20026;-76
2021/08/11 14:35:35;;;;;;;3.55;2.03;;;;;;;;;;5011395;28;20033;-74
2021/08/11 14:38:01;;;;;;;4.03;2.33;;;;;;;;;;5009478;28;20083;-78
2021/08/11 14:40:27;;;;;;;4.93;2.22;;;;;;;;;;5012142;28;20112;-75
2021/08/11 14:42:52;;;;;;;3.58;2.35;;;;;;;;;;5012232;28;20515;-74
2021/08/11 14:45:18;;;;;;;4.10;2.17;;;;;;;;;;5012246;28;20030;-75
2021/08/11 14:47:43;;;;;;;3.70;2.05;;;;;;;;;;4999672;28;20021;-76
2021/08/11 14:50:09;;;;;;;4.75;2.03;;;;;;;;;;5012031;28;20401;-73
2021/08/11 14:52:35;;;;;;;4.05;2.08;;;;;;;;;;5012804;28;20034;-76